Time;durP1;ratioP1;P1;durP2;ratioP2;P2;SDS_P1;SDS_P2;PMS_P1;PMS_P2;Temp;Humidity;BMP_temperature;BMP_pressure;BME280_temperature;BME280_humidity;BME280_pressure;Samples;Min_cycle;Max_cycle;Signal;HPM_P1;HPM_P2
2022/05/10 00:01:38;;;;;;;103.22;44.80;;;;;;;;;;5011627;28;20429;-50
2022/05/10 00:04:06;;;;;;;89.95;43.75;;;;;;;;;;5012156;28;20029;-54
2022/05/10 00:06:40;;;;;;;103.40;42.92;;;;;;;;;;5011468;28;20054;-50
2022/05/10 00:09:07;;;;;;;94.40;42.15;;;;;;;;;;4994469;28;20030;-52
2022/05/10 00:11:36;;;;;;;103.68;43.72;;;;;;;;;;5011835;28;20026;-53
2022/05/10 00:14:03;;;;;;;89.75;40.05;;;;;;;;;;5011624;28;20041;-52
2022/05/10 00:16:40;;;;;;;95.25;42.28;;;;;;;;;;5012019;28;20022;-55
2022/05/10 00:19:08;;;;;;;91.70;42.63;;;;;;;;;;5011483;28;20443;-51
2022/05/10 00:21:36;;;;;;;81.15;39.40;;;;;;;;;;5011599;28;20033;-54
2022/05/10 00:24:02;;;;;;;86.45;39.50;;;;;;;;;;5011891;28;20056;-54
2022/05/10 00:26:29;;;;;;;85.55;38.38;;;;;;;;;;4993647;28;20038;-52
2022/05/10 00:28:56;;;;;;;90.13;41.65;;;;;;;;;;5011990;28;20092;-52
2022/05/10 00:31:23;;;;;;;120.82;47.97;;;;;;;;;;5011137;28;20041;-53
2022/05/10 00:33:50;;;;;;;157.43;55.55;;;;;;;;;;5011310;28;20129;-53
2022/05/10 00:36:19;;;;;;;196.45;61.83;;;;;;;;;;5011303;28;20041;-50
2022/05/10 00:38:46;;;;;;;182.80;60.55;;;;;;;;;;5011313;28;20034;-52
2022/05/10 00:41:20;;;;;;;207.43;66.20;;;;;;;;;;5011242;28;20030;-50
2022/05/10 00:43:58;;;;;;;207.15;66.35;;;;;;;;;;5011380;28;20066;-55
2022/05/10 00:46:29;;;;;;;208.43;65.43;;;;;;;;;;5011248;28;20034;-55
2022/05/10 00:49:02;;;;;;;217.75;65.78;;;;;;;;;;5011128;28;20081;-50
2022/05/10 00:51:29;;;;;;;190.57;62.25;;;;;;;;;;5011027;28;20095;-49
2022/05/10 00:53:56;;;;;;;176.25;59.47;;;;;;;;;;5011063;28;20034;-55
2022/05/10 00:56:31;;;;;;;160.52;58.00;;;;;;;;;;5010986;28;20563;-50
2022/05/10 00:59:04;;;;;;;180.38;57.15;;;;;;;;;;5011425;28;20047;-52
2022/05/10 01:01:33;;;;;;;161.10;54.55;;;;;;;;;;5010972;28;20018;-52
2022/05/10 01:04:25;;;;;;;144.45;53.47;;;;;;;;;;5010966;28;20041;-52
2022/05/10 01:07:04;;;;;;;153.15;51.40;;;;;;;;;;5003853;28;20412;-52
2022/05/10 01:09:40;;;;;;;147.32;51.22;;;;;;;;;;5011313;28;20022;-50
2022/05/10 01:12:15;;;;;;;135.65;49.63;;;;;;;;;;5012868;28;20044;-52
2022/05/10 01:14:42;;;;;;;134.75;50.65;;;;;;;;;;5014776;28;20036;-50
2022/05/10 01:17:09;;;;;;;131.82;50.13;;;;;;;;;;5014822;28;20033;-52
2022/05/10 01:19:36;;;;;;;137.52;48.08;;;;;;;;;;5014497;28;20105;-50
2022/05/10 01:22:03;;;;;;;120.15;49.13;;;;;;;;;;5014661;28;20022;-52
2022/05/10 01:24:48;;;;;;;129.90;47.45;;;;;;;;;;5014839;28;20092;-53
2022/05/10 01:27:25;;;;;;;119.05;44.92;;;;;;;;;;5014349;28;20025;-53
2022/05/10 01:29:55;;;;;;;129.85;45.00;;;;;;;;;;4997748;28;20033;-53
2022/05/10 01:35:14;;;;;;;112.65;42.90;;;;;;;;;;4994735;28;20138;-49
2022/05/10 01:37:44;;;;;;;113.63;43.25;;;;;;;;;;4993940;28;20108;-49
2022/05/10 01:40:29;;;;;;;114.30;42.38;;;;;;;;;;4995396;28;20027;-50
2022/05/10 01:43:00;;;;;;;100.93;39.15;;;;;;;;;;4995363;28;20477;-46
2022/05/10 01:45:36;;;;;;;108.47;40.72;;;;;;;;;;4994891;28;20113;-50
2022/05/10 01:48:05;;;;;;;111.25;41.55;;;;;;;;;;5013176;28;20037;-52
2022/05/10 01:50:38;;;;;;;117.15;42.05;;;;;;;;;;5015141;28;20029;-54
2022/05/10 01:53:05;;;;;;;119.20;40.42;;;;;;;;;;5014836;28;20022;-50
2022/05/10 01:55:39;;;;;;;108.97;41.80;;;;;;;;;;5014942;28;20021;-53
2022/05/10 01:58:11;;;;;;;102.55;38.78;;;;;;;;;;5014994;28;20022;-50
2022/05/10 02:00:38;;;;;;;101.45;39.42;;;;;;;;;;5014960;28;20471;-50
2022/05/10 02:03:15;;;;;;;106.75;39.92;;;;;;;;;;5014950;28;20033;-53
2022/05/10 02:05:52;;;;;;;96.25;38.00;;;;;;;;;;4997135;28;20037;-50
2022/05/10 02:08:39;;;;;;;98.13;38.28;;;;;;;;;;5014515;28;20060;-51
2022/05/10 02:11:13;;;;;;;93.97;36.30;;;;;;;;;;5014499;28;20034;-50
2022/05/10 02:13:43;;;;;;;92.95;37.00;;;;;;;;;;5014628;28;20085;-49
2022/05/10 02:16:18;;;;;;;94.70;36.17;;;;;;;;;;5014757;28;20487;-50
2022/05/10 02:18:49;;;;;;;84.75;34.10;;;;;;;;;;5014790;28;20025;-50
2022/05/10 02:21:19;;;;;;;87.75;34.97;;;;;;;;;;5014633;28;20051;-54
2022/05/10 02:23:54;;;;;;;88.22;35.55;;;;;;;;;;5013956;28;20057;-52
2022/05/10 02:26:28;;;;;;;93.47;35.83;;;;;;;;;;5014478;28;20026;-54
2022/05/10 02:29:00;;;;;;;82.57;33.33;;;;;;;;;;5014685;28;20021;-52
2022/05/10 02:31:31;;;;;;;91.43;34.80;;;;;;;;;;5014801;28;20608;-52
2022/05/10 02:33:59;;;;;;;85.15;34.20;;;;;;;;;;5014577;28;20391;-52
2022/05/10 02:36:26;;;;;;;80.82;32.80;;;;;;;;;;5014710;28;20026;-52
2022/05/10 02:38:53;;;;;;;84.28;33.08;;;;;;;;;;5014645;28;20077;-50
2022/05/10 02:41:21;;;;;;;79.55;32.15;;;;;;;;;;5014558;28;20030;-52
2022/05/10 02:43:57;;;;;;;79.13;31.77;;;;;;;;;;5014473;28;20388;-49
2022/05/10 02:46:25;;;;;;;76.68;30.80;;;;;;;;;;5014459;28;20029;-50
2022/05/10 02:48:52;;;;;;;76.72;31.80;;;;;;;;;;4996911;28;20037;-49
2022/05/10 02:51:19;;;;;;;73.63;30.95;;;;;;;;;;5014466;28;20049;-52
2022/05/10 02:53:47;;;;;;;69.57;29.20;;;;;;;;;;5014229;28;20030;-51
2022/05/10 02:56:17;;;;;;;72.72;30.52;;;;;;;;;;5014337;28;20396;-51
2022/05/10 02:58:48;;;;;;;70.93;29.65;;;;;;;;;;5014287;28;20128;-52
2022/05/10 03:01:24;;;;;;;76.82;31.40;;;;;;;;;;5014263;28;20049;-52
2022/05/10 03:03:52;;;;;;;65.35;27.90;;;;;;;;;;5013977;28;20503;-50
2022/05/10 03:06:20;;;;;;;67.47;31.25;;;;;;;;;;5013916;28;20026;-51
2022/05/10 03:08:48;;;;;;;73.18;30.02;;;;;;;;;;5014062;28;20477;-54
2022/05/10 03:11:15;;;;;;;67.70;28.48;;;;;;;;;;5014112;28;20531;-49
2022/05/10 03:13:43;;;;;;;64.55;27.98;;;;;;;;;;5013789;28;20461;-50
2022/05/10 03:16:10;;;;;;;69.80;26.73;;;;;;;;;;5013903;28;20025;-52
2022/05/10 03:18:37;;;;;;;60.40;27.33;;;;;;;;;;5013908;28;20476;-53
2022/05/10 03:21:04;;;;;;;64.40;27.38;;;;;;;;;;5013864;28;20046;-52
2022/05/10 03:23:31;;;;;;;59.58;26.77;;;;;;;;;;5013574;28;20105;-49
2022/05/10 03:25:58;;;;;;;69.35;27.35;;;;;;;;;;5013726;28;20048;-50
2022/05/10 03:28:25;;;;;;;56.33;26.70;;;;;;;;;;5013780;28;20480;-49
2022/05/10 03:30:52;;;;;;;61.45;24.92;;;;;;;;;;5013756;28;20113;-50
2022/05/10 03:33:20;;;;;;;61.15;26.40;;;;;;;;;;5013599;28;20092;-49
2022/05/10 03:35:49;;;;;;;62.33;25.42;;;;;;;;;;5012546;28;20061;-51
2022/05/10 03:38:16;;;;;;;53.50;24.98;;;;;;;;;;5013659;28;20030;-51
2022/05/10 03:40:43;;;;;;;47.67;23.38;;;;;;;;;;5013500;28;20097;-50
2022/05/10 03:43:11;;;;;;;56.83;24.75;;;;;;;;;;5013427;28;20121;-51
2022/05/10 03:45:38;;;;;;;55.60;24.00;;;;;;;;;;5013366;28;20080;-49
2022/05/10 03:48:05;;;;;;;49.72;23.88;;;;;;;;;;5013388;28;20058;-51
2022/05/10 03:50:32;;;;;;;49.47;23.35;;;;;;;;;;5013396;28;20080;-51
2022/05/10 03:52:59;;;;;;;53.92;23.98;;;;;;;;;;5013243;28;20030;-53
2022/05/10 03:55:27;;;;;;;56.20;22.10;;;;;;;;;;4995531;28;20037;-53
2022/05/10 03:57:54;;;;;;;55.90;22.95;;;;;;;;;;5013153;28;20125;-50
2022/05/10 04:00:30;;;;;;;42.22;21.95;;;;;;;;;;5013242;28;20080;-50
2022/05/10 04:02:58;;;;;;;50.45;22.33;;;;;;;;;;5013085;28;20030;-52
2022/05/10 04:05:28;;;;;;;45.00;21.75;;;;;;;;;;5013079;28;20407;-52
2022/05/10 04:07:55;;;;;;;47.58;21.90;;;;;;;;;;5012867;28;20037;-51
2022/05/10 04:10:23;;;;;;;51.40;22.38;;;;;;;;;;5013252;28;20140;-50
2022/05/10 04:12:50;;;;;;;42.65;21.17;;;;;;;;;;5012910;28;20468;-52
2022/05/10 04:15:18;;;;;;;46.97;21.08;;;;;;;;;;5012803;28;20045;-51
2022/05/10 04:17:45;;;;;;;43.25;20.27;;;;;;;;;;5012806;28;20105;-49
2022/05/10 04:20:13;;;;;;;48.53;21.48;;;;;;;;;;5012911;28;20049;-53
2022/05/10 04:22:40;;;;;;;40.60;19.60;;;;;;;;;;5012915;28;20026;-49
2022/05/10 04:25:08;;;;;;;41.35;19.10;;;;;;;;;;5012787;28;20025;-50
2022/05/10 04:27:35;;;;;;;37.58;18.88;;;;;;;;;;5012773;28;20480;-50
2022/05/10 04:30:02;;;;;;;46.28;20.40;;;;;;;;;;5012675;28;20451;-52
2022/05/10 04:32:29;;;;;;;40.05;18.95;;;;;;;;;;5012657;28;20042;-51
2022/05/10 04:34:56;;;;;;;43.10;19.42;;;;;;;;;;5012642;28;20037;-50
2022/05/10 04:37:23;;;;;;;40.92;19.10;;;;;;;;;;5012564;28;20030;-52
2022/05/10 04:42:35;;;;;;;43.97;18.90;;;;;;;;;;5012986;28;20045;-49
2022/05/10 04:45:02;;;;;;;40.90;19.70;;;;;;;;;;5012514;28;20030;-50
2022/05/10 04:47:29;;;;;;;39.50;17.88;;;;;;;;;;5017600;28;20028;-48
2022/05/10 04:49:56;;;;;;;41.50;18.27;;;;;;;;;;5019091;28;20034;-50
2022/05/10 04:52:22;;;;;;;36.90;18.17;;;;;;;;;;5019234;28;20052;-49
2022/05/10 04:54:49;;;;;;;35.25;17.55;;;;;;;;;;5019007;28;20504;-51
2022/05/10 04:57:16;;;;;;;35.45;18.15;;;;;;;;;;5019269;28;20038;-52
2022/05/10 04:59:43;;;;;;;37.35;18.10;;;;;;;;;;5019016;28;20026;-49
2022/05/10 05:02:10;;;;;;;37.10;18.00;;;;;;;;;;5018949;28;20053;-51
2022/05/10 05:04:37;;;;;;;38.75;17.60;;;;;;;;;;5018908;28;20097;-49
2022/05/10 05:07:04;;;;;;;32.13;17.52;;;;;;;;;;5018800;28;20053;-47
2022/05/10 05:09:31;;;;;;;36.50;18.00;;;;;;;;;;5018938;28;20052;-50
2022/05/10 05:11:58;;;;;;;41.65;18.08;;;;;;;;;;5018862;28;20026;-49
2022/05/10 05:14:25;;;;;;;31.48;16.85;;;;;;;;;;5018729;28;20546;-48
2022/05/10 05:16:54;;;;;;;30.83;15.63;;;;;;;;;;5018876;28;20061;-50
2022/05/10 05:19:21;;;;;;;33.75;17.25;;;;;;;;;;5018792;28;20480;-50
2022/05/10 05:21:48;;;;;;;39.00;17.58;;;;;;;;;;5018860;28;20579;-49
2022/05/10 05:24:15;;;;;;;35.85;16.33;;;;;;;;;;5018712;28;20495;-50
2022/05/10 05:26:42;;;;;;;34.63;17.00;;;;;;;;;;5018743;28;20498;-52
2022/05/10 05:29:09;;;;;;;28.85;15.10;;;;;;;;;;5018744;28;20065;-52
2022/05/10 05:31:36;;;;;;;34.42;15.65;;;;;;;;;;5018798;28;20026;-51
2022/05/10 05:34:03;;;;;;;33.67;16.25;;;;;;;;;;5018600;28;20026;-52
2022/05/10 05:36:30;;;;;;;31.85;15.88;;;;;;;;;;5018656;28;20022;-49
2022/05/10 05:38:57;;;;;;;27.63;15.93;;;;;;;;;;5018432;28;20636;-51
2022/05/10 05:41:24;;;;;;;35.45;15.63;;;;;;;;;;5018880;28;20475;-51
2022/05/10 05:43:51;;;;;;;33.78;16.15;;;;;;;;;;5018557;28;20105;-50
2022/05/10 05:46:18;;;;;;;30.70;14.80;;;;;;;;;;5018817;28;20453;-51
2022/05/10 05:48:46;;;;;;;31.10;14.88;;;;;;;;;;5018726;28;20026;-52
2022/05/10 05:51:13;;;;;;;28.50;15.15;;;;;;;;;;5018599;28;20382;-52
2022/05/10 05:53:40;;;;;;;26.95;14.27;;;;;;;;;;5018584;28;20030;-52
2022/05/10 05:56:09;;;;;;;32.10;15.88;;;;;;;;;;5018775;28;20030;-51
2022/05/10 05:58:36;;;;;;;27.73;15.02;;;;;;;;;;5015825;28;20385;-49
2022/05/10 06:01:10;;;;;;;29.52;14.70;;;;;;;;;;5015589;28;20068;-52
2022/05/10 06:03:37;;;;;;;27.60;14.75;;;;;;;;;;5015433;28;20022;-50
2022/05/10 06:06:04;;;;;;;29.05;14.18;;;;;;;;;;5015218;28;20029;-49
2022/05/10 06:08:31;;;;;;;27.33;13.15;;;;;;;;;;5015341;28;20037;-48
2022/05/10 06:10:58;;;;;;;26.33;13.88;;;;;;;;;;5015474;28;20028;-50
2022/05/10 06:13:25;;;;;;;28.42;14.43;;;;;;;;;;5015276;28;20476;-49
2022/05/10 06:15:52;;;;;;;25.42;13.77;;;;;;;;;;5015257;28;20036;-52
2022/05/10 06:18:19;;;;;;;25.52;13.73;;;;;;;;;;5015273;28;20096;-51
2022/05/10 06:20:46;;;;;;;25.17;13.98;;;;;;;;;;5015241;28;20022;-51
2022/05/10 06:23:13;;;;;;;26.48;13.90;;;;;;;;;;5015048;28;20488;-51
2022/05/10 06:25:40;;;;;;;26.20;13.23;;;;;;;;;;5015194;28;20022;-51
2022/05/10 06:28:07;;;;;;;26.98;13.02;;;;;;;;;;5015052;28;20064;-49
2022/05/10 06:30:34;;;;;;;23.17;11.80;;;;;;;;;;5014988;28;20033;-50
2022/05/10 06:33:01;;;;;;;25.98;12.35;;;;;;;;;;5014963;28;20029;-51
2022/05/10 06:35:29;;;;;;;23.40;12.60;;;;;;;;;;5014892;28;20029;-51
2022/05/10 06:40:42;;;;;;;23.92;11.82;;;;;;;;;;5015094;28;20040;-48
2022/05/10 06:43:09;;;;;;;23.75;12.48;;;;;;;;;;5014780;28;20022;-53
2022/05/10 06:45:36;;;;;;;25.52;12.98;;;;;;;;;;4997193;28;20026;-48
2022/05/10 06:48:03;;;;;;;22.25;11.38;;;;;;;;;;4997427;28;20105;-50
2022/05/10 06:50:31;;;;;;;20.80;12.93;;;;;;;;;;5014580;28;20030;-49
2022/05/10 06:52:58;;;;;;;16.85;11.20;;;;;;;;;;5014544;28;20026;-51
2022/05/10 06:55:30;;;;;;;23.65;11.82;;;;;;;;;;5014499;28;20507;-53
2022/05/10 06:57:57;;;;;;;21.48;11.63;;;;;;;;;;5014584;28;20026;-48
2022/05/10 07:00:24;;;;;;;21.92;11.02;;;;;;;;;;5014464;28;20030;-49
2022/05/10 07:02:51;;;;;;;20.75;11.30;;;;;;;;;;5014427;28;20030;-51
2022/05/10 07:05:18;;;;;;;25.70;12.07;;;;;;;;;;5014095;28;20041;-48
2022/05/10 07:07:45;;;;;;;19.40;11.00;;;;;;;;;;5014135;28;20062;-50
2022/05/10 07:10:13;;;;;;;22.33;11.52;;;;;;;;;;5013989;28;20026;-48
2022/05/10 07:12:40;;;;;;;19.00;10.57;;;;;;;;;;5014074;28;20038;-51
2022/05/10 07:15:09;;;;;;;18.50;10.25;;;;;;;;;;5014207;28;20030;-50
2022/05/10 07:17:38;;;;;;;19.75;10.73;;;;;;;;;;5014195;28;20046;-52
2022/05/10 07:20:06;;;;;;;21.45;10.57;;;;;;;;;;4996533;28;20042;-48
2022/05/10 07:22:33;;;;;;;20.77;11.30;;;;;;;;;;5014126;28;20030;-52
2022/05/10 07:25:00;;;;;;;17.17;9.63;;;;;;;;;;5013898;28;20038;-48
2022/05/10 07:27:27;;;;;;;18.25;10.77;;;;;;;;;;5014069;28;20030;-49
2022/05/10 07:29:54;;;;;;;16.88;9.57;;;;;;;;;;5013985;28;20056;-50
2022/05/10 07:32:22;;;;;;;18.83;9.68;;;;;;;;;;5013691;28;20499;-52
2022/05/10 07:34:49;;;;;;;20.88;9.45;;;;;;;;;;5013816;28;20057;-49
2022/05/10 07:37:16;;;;;;;17.27;8.73;;;;;;;;;;5013834;28;20058;-51
2022/05/10 07:39:43;;;;;;;14.38;9.48;;;;;;;;;;5013803;28;20071;-52
2022/05/10 07:42:10;;;;;;;17.55;10.00;;;;;;;;;;5013631;28;20105;-55
2022/05/10 07:44:37;;;;;;;16.70;9.73;;;;;;;;;;5013651;28;20073;-51
2022/05/10 07:47:05;;;;;;;18.95;9.10;;;;;;;;;;5013702;28;20484;-53
2022/05/10 07:49:33;;;;;;;16.08;9.18;;;;;;;;;;5013573;28;20030;-47
2022/05/10 07:52:00;;;;;;;18.70;9.27;;;;;;;;;;5013441;28;20042;-47
2022/05/10 07:54:28;;;;;;;15.05;8.63;;;;;;;;;;5013519;28;20061;-51
2022/05/10 07:56:55;;;;;;;17.38;9.52;;;;;;;;;;5013498;28;20117;-47
2022/05/10 07:59:22;;;;;;;18.70;9.82;;;;;;;;;;5013494;28;20022;-53
2022/05/10 08:01:49;;;;;;;18.55;9.52;;;;;;;;;;5013412;28;20026;-48
2022/05/10 08:04:15;;;;;;;15.27;8.43;;;;;;;;;;5013295;28;20144;-53
2022/05/10 08:06:42;;;;;;;14.25;8.98;;;;;;;;;;5013126;28;20049;-50
2022/05/10 08:09:09;;;;;;;18.33;9.18;;;;;;;;;;5013299;28;20037;-49
2022/05/10 08:11:36;;;;;;;15.05;8.98;;;;;;;;;;5013334;28;20034;-51
2022/05/10 08:14:03;;;;;;;16.27;8.60;;;;;;;;;;5013049;28;20022;-53
2022/05/10 08:16:32;;;;;;;16.90;9.82;;;;;;;;;;5013183;28;20037;-48
2022/05/10 08:18:59;;;;;;;16.55;9.57;;;;;;;;;;5013013;28;20468;-47
2022/05/10 08:21:26;;;;;;;17.77;9.07;;;;;;;;;;5012625;28;20026;-51
2022/05/10 08:23:55;;;;;;;14.43;7.53;;;;;;;;;;5012996;28;20131;-49
2022/05/10 08:26:23;;;;;;;14.30;7.80;;;;;;;;;;5012954;28;20400;-53
2022/05/10 08:28:50;;;;;;;16.05;8.50;;;;;;;;;;5013063;28;20033;-50
2022/05/10 08:31:17;;;;;;;15.00;8.70;;;;;;;;;;4995400;28;20042;-53
2022/05/10 08:33:45;;;;;;;14.15;8.32;;;;;;;;;;5012724;28;20026;-52
2022/05/10 08:36:12;;;;;;;12.50;8.48;;;;;;;;;;5012955;28;20049;-52
2022/05/10 08:38:39;;;;;;;14.10;8.32;;;;;;;;;;5012981;28;20071;-50
2022/05/10 08:41:09;;;;;;;14.60;8.30;;;;;;;;;;5012929;28;20384;-53
2022/05/10 08:43:44;;;;;;;15.45;8.13;;;;;;;;;;5012775;28;20033;-52
2022/05/10 08:46:13;;;;;;;13.60;8.88;;;;;;;;;;5012855;28;20026;-51
2022/05/10 08:48:40;;;;;;;16.40;7.63;;;;;;;;;;5012791;28;20032;-50
2022/05/10 08:51:08;;;;;;;15.70;7.75;;;;;;;;;;5012856;28;20118;-52
2022/05/10 08:53:35;;;;;;;12.23;6.88;;;;;;;;;;5012587;28;20030;-51
2022/05/10 08:56:08;;;;;;;13.52;8.05;;;;;;;;;;5012816;28;20033;-52
2022/05/10 08:59:10;;;;;;;14.43;8.05;;;;;;;;;;5012778;28;20018;-51
2022/05/10 09:01:47;;;;;;;13.10;8.07;;;;;;;;;;4933187;29;20126;-50
2022/05/10 09:04:32;;;;;;;12.48;7.38;;;;;;;;;;5002193;28;20102;-48
2022/05/10 09:07:17;;;;;;;13.45;8.05;;;;;;;;;;5012279;28;20107;-48
2022/05/10 09:10:04;;;;;;;10.68;6.95;;;;;;;;;;5012781;28;20451;-49
2022/05/10 09:12:37;;;;;;;11.27;6.88;;;;;;;;;;5012490;28;20030;-53
2022/05/10 09:15:06;;;;;;;13.93;8.13;;;;;;;;;;5012440;28;20030;-48
2022/05/10 09:17:39;;;;;;;11.38;7.45;;;;;;;;;;5012500;28;20439;-49
2022/05/10 09:20:07;;;;;;;11.93;6.35;;;;;;;;;;5012394;28;20582;-48
2022/05/10 09:22:52;;;;;;;9.95;6.60;;;;;;;;;;5012560;28;20030;-47
2022/05/10 09:25:19;;;;;;;13.07;8.00;;;;;;;;;;4994775;28;20113;-50
2022/05/10 09:27:46;;;;;;;9.90;6.18;;;;;;;;;;5012539;28;20049;-53
2022/05/10 09:30:25;;;;;;;11.13;7.53;;;;;;;;;;5011829;28;20022;-48
2022/05/10 09:35:49;;;;;;;11.32;7.22;;;;;;;;;;4999080;28;20045;-46
2022/05/10 09:38:17;;;;;;;8.95;6.47;;;;;;;;;;4996496;28;20029;-51
2022/05/10 09:40:47;;;;;;;12.02;6.55;;;;;;;;;;4996470;28;20030;-50
2022/05/10 09:43:22;;;;;;;12.50;7.25;;;;;;;;;;4996235;28;20515;-49
2022/05/10 09:46:07;;;;;;;12.65;7.30;;;;;;;;;;4996127;28;20099;-50
2022/05/10 09:48:35;;;;;;;11.48;6.60;;;;;;;;;;4996285;28;20030;-47
2022/05/10 09:51:19;;;;;;;14.25;8.30;;;;;;;;;;4996097;28;20054;-47
2022/05/10 09:53:46;;;;;;;8.32;5.43;;;;;;;;;;4995789;28;20022;-49
2022/05/10 09:56:33;;;;;;;11.40;6.82;;;;;;;;;;4996192;28;20114;-50
2022/05/10 09:59:24;;;;;;;9.65;6.35;;;;;;;;;;4996019;28;20113;-49
2022/05/10 10:01:56;;;;;;;11.38;6.57;;;;;;;;;;4969222;28;20511;-48
2022/05/10 10:04:37;;;;;;;10.80;5.95;;;;;;;;;;4995844;28;20034;-46
2022/05/10 10:07:16;;;;;;;10.38;6.65;;;;;;;;;;4995611;28;20047;-47
2022/05/10 10:10:06;;;;;;;10.95;5.80;;;;;;;;;;4995845;28;20050;-50
2022/05/10 10:12:35;;;;;;;10.57;6.72;;;;;;;;;;4968216;28;20129;-49
2022/05/10 10:15:16;;;;;;;12.38;7.03;;;;;;;;;;4995740;28;20030;-49
2022/05/10 10:17:49;;;;;;;10.73;6.28;;;;;;;;;;4995769;28;20023;-48
2022/05/10 10:20:22;;;;;;;11.55;6.50;;;;;;;;;;4995651;28;20444;-49
2022/05/10 10:22:51;;;;;;;11.45;7.22;;;;;;;;;;4995824;28;20080;-48
2022/05/10 10:25:26;;;;;;;11.55;7.25;;;;;;;;;;4995628;28;20033;-49
2022/05/10 10:27:57;;;;;;;11.43;6.65;;;;;;;;;;4995590;28;20081;-49
2022/05/10 10:30:30;;;;;;;9.60;6.93;;;;;;;;;;4995548;28;20065;-48
2022/05/10 10:33:01;;;;;;;10.60;7.10;;;;;;;;;;4995354;28;20026;-49
2022/05/10 10:35:34;;;;;;;10.02;6.70;;;;;;;;;;4995362;28;20042;-48
2022/05/10 10:38:21;;;;;;;10.43;5.40;;;;;;;;;;4994806;28;20084;-49
2022/05/10 10:41:00;;;;;;;20.65;6.72;;;;;;;;;;4985013;28;20448;-44
2022/05/10 10:43:33;;;;;;;13.50;5.95;;;;;;;;;;4995047;28;20026;-44
2022/05/10 10:46:08;;;;;;;11.10;6.28;;;;;;;;;;4994724;28;20072;-45
2022/05/10 10:48:47;;;;;;;14.18;7.03;;;;;;;;;;4977608;28;20030;-46
2022/05/10 10:51:15;;;;;;;10.93;6.80;;;;;;;;;;4995404;28;20420;-46
2022/05/10 10:53:43;;;;;;;15.93;6.70;;;;;;;;;;4994975;28;20488;-45
2022/05/10 10:56:16;;;;;;;9.93;6.22;;;;;;;;;;4995026;28;20026;-46
2022/05/10 10:58:46;;;;;;;20.75;6.93;;;;;;;;;;4994958;28;20022;-44
2022/05/10 11:01:27;;;;;;;12.70;6.65;;;;;;;;;;4994828;28;20035;-44
2022/05/10 11:04:12;;;;;;;14.57;7.07;;;;;;;;;;4994896;28;20022;-45
2022/05/10 11:06:50;;;;;;;9.93;6.20;;;;;;;;;;4994652;28;20286;-44
2022/05/10 11:09:33;;;;;;;13.35;7.20;;;;;;;;;;4994771;28;20109;-45
2022/05/10 11:12:12;;;;;;;13.75;5.70;;;;;;;;;;4994251;28;20030;-49
2022/05/10 11:14:39;;;;;;;17.95;6.70;;;;;;;;;;4994507;28;20069;-44
2022/05/10 11:17:24;;;;;;;12.00;6.20;;;;;;;;;;4994581;28;20499;-44
2022/05/10 11:20:03;;;;;;;40.00;9.48;;;;;;;;;;4994540;28;20494;-52
2022/05/10 11:22:39;;;;;;;26.13;7.30;;;;;;;;;;4994514;28;20492;-50
2022/05/10 11:25:06;;;;;;;22.50;6.68;;;;;;;;;;4994403;28;20022;-48
2022/05/10 11:27:47;;;;;;;45.28;8.25;;;;;;;;;;4994211;28;20093;-44
2022/05/10 11:30:22;;;;;;;66.50;9.35;;;;;;;;;;4994298;28;20022;-44
2022/05/10 11:32:58;;;;;;;214.95;24.98;;;;;;;;;;4994072;28;20083;-45
2022/05/10 11:35:48;;;;;;;75.93;12.23;;;;;;;;;;4994210;28;20033;-47
2022/05/10 11:38:32;;;;;;;55.10;9.85;;;;;;;;;;4991181;28;20045;-44
2022/05/10 11:41:02;;;;;;;38.40;8.80;;;;;;;;;;4973389;28;20043;-47
2022/05/10 11:43:43;;;;;;;37.55;9.30;;;;;;;;;;4974063;28;20034;-48
2022/05/10 11:46:48;;;;;;;47.80;12.05;;;;;;;;;;4973695;28;20035;-46
2022/05/10 11:49:18;;;;;;;60.85;11.73;;;;;;;;;;4894526;29;20619;-49
2022/05/10 11:51:52;;;;;;;42.92;9.25;;;;;;;;;;4895612;29;20036;-45
2022/05/10 11:54:39;;;;;;;37.45;8.02;;;;;;;;;;4938202;28;20058;-46
2022/05/10 11:57:16;;;;;;;48.88;8.80;;;;;;;;;;4973044;28;20543;-43
2022/05/10 11:59:44;;;;;;;292.95;29.10;;;;;;;;;;4972917;28;20026;-44
2022/05/10 12:02:29;;;;;;;165.88;17.83;;;;;;;;;;4973343;28;20030;-47
2022/05/10 12:05:13;;;;;;;66.97;11.25;;;;;;;;;;4973608;28;20027;-45
2022/05/10 12:07:48;;;;;;;54.13;11.15;;;;;;;;;;4973246;28;20055;-46
2022/05/10 12:10:24;;;;;;;87.22;12.30;;;;;;;;;;4973369;28;20049;-48
2022/05/10 12:12:53;;;;;;;67.63;11.05;;;;;;;;;;4974154;28;20521;-53
2022/05/10 12:21:19;;;;;;;55.10;9.15;;;;;;;;;;4992488;28;20049;-54
2022/05/10 12:24:04;;;;;;;61.38;9.93;;;;;;;;;;4992729;28;20085;-45
2022/05/10 12:26:35;;;;;;;65.72;10.02;;;;;;;;;;4993033;28;20026;-49
2022/05/10 12:29:03;;;;;;;57.30;9.80;;;;;;;;;;4992628;28;20105;-45
2022/05/10 12:31:32;;;;;;;46.90;9.82;;;;;;;;;;4992428;28;20541;-52
2022/05/10 12:34:06;;;;;;;49.05;10.05;;;;;;;;;;4992130;28;20388;-53
2022/05/10 12:36:35;;;;;;;43.17;8.93;;;;;;;;;;4992582;28;20042;-51
2022/05/10 12:39:21;;;;;;;51.97;10.77;;;;;;;;;;4992245;28;20125;-47
2022/05/10 12:41:59;;;;;;;52.08;11.80;;;;;;;;;;4990570;28;20125;-51
2022/05/10 12:44:44;;;;;;;48.40;12.18;;;;;;;;;;4991513;28;20031;-51
2022/05/10 12:47:29;;;;;;;56.28;11.40;;;;;;;;;;4974324;28;20385;-43
2022/05/10 12:50:14;;;;;;;44.13;12.20;;;;;;;;;;4994193;28;20072;-51
2022/05/10 12:52:47;;;;;;;46.03;10.50;;;;;;;;;;5007237;28;20026;-48
2022/05/10 12:55:13;;;;;;;;;;;;;;;;;;5011440;28;20048;-50
2022/05/10 12:57:43;;;;;;;34.05;9.93;;;;;;;;;;5011471;28;20390;-54
2022/05/10 13:00:12;;;;;;;38.42;10.43;;;;;;;;;;5011595;28;20026;-49
2022/05/10 13:03:09;;;;;;;39.45;9.70;;;;;;;;;;5011455;28;20133;-47
2022/05/10 13:05:54;;;;;;;39.00;9.98;;;;;;;;;;4998568;28;20052;-52
2022/05/10 13:08:21;;;;;;;35.75;9.60;;;;;;;;;;5013651;28;20108;-51
2022/05/10 13:10:49;;;;;;;36.42;9.98;;;;;;;;;;5015761;28;20688;-46
2022/05/10 13:13:22;;;;;;;31.20;9.68;;;;;;;;;;5015188;28;20116;-50
2022/05/10 13:15:50;;;;;;;43.28;9.10;;;;;;;;;;5015108;28;20061;-46
2022/05/10 13:18:20;;;;;;;34.75;8.88;;;;;;;;;;5014643;28;20034;-54
2022/05/10 13:20:51;;;;;;;29.92;9.40;;;;;;;;;;4981700;28;20442;-52
2022/05/10 13:23:19;;;;;;;35.30;8.70;;;;;;;;;;5015212;28;20053;-52
2022/05/10 13:25:47;;;;;;;32.20;8.30;;;;;;;;;;5014413;28;20265;-54
2022/05/10 13:28:19;;;;;;;28.55;9.02;;;;;;;;;;5015147;28;20042;-53
2022/05/10 13:30:50;;;;;;;30.58;8.57;;;;;;;;;;4997676;28;20064;-52
2022/05/10 13:33:25;;;;;;;31.60;8.43;;;;;;;;;;5015173;28;20057;-47
2022/05/10 13:35:54;;;;;;;29.90;7.68;;;;;;;;;;5014177;28;20595;-50
2022/05/10 13:38:50;;;;;;;28.13;8.55;;;;;;;;;;5014865;28;20484;-55
2022/05/10 13:41:30;;;;;;;28.25;7.53;;;;;;;;;;5002196;28;20041;-52
2022/05/10 13:44:09;;;;;;;28.52;7.85;;;;;;;;;;5015252;28;20365;-53
2022/05/10 13:46:47;;;;;;;25.30;7.85;;;;;;;;;;5013691;28;20057;-49
2022/05/10 13:49:19;;;;;;;27.27;7.85;;;;;;;;;;5014317;28;20030;-52
2022/05/10 13:51:56;;;;;;;20.02;7.68;;;;;;;;;;5014854;28;20080;-53
2022/05/10 13:54:27;;;;;;;23.33;7.32;;;;;;;;;;5014317;28;20033;-50
2022/05/10 13:56:54;;;;;;;19.15;6.43;;;;;;;;;;5014077;28;20033;-50
2022/05/10 13:59:31;;;;;;;21.13;7.05;;;;;;;;;;5014025;28;20037;-54
2022/05/10 14:02:02;;;;;;;20.90;6.55;;;;;;;;;;5014333;28;20041;-45
2022/05/10 14:04:30;;;;;;;21.05;6.90;;;;;;;;;;5014092;28;20522;-51
2022/05/10 14:06:58;;;;;;;22.00;6.40;;;;;;;;;;5013964;28;20070;-51
2022/05/10 14:09:26;;;;;;;24.25;6.60;;;;;;;;;;5013548;28;20034;-50
2022/05/10 14:11:55;;;;;;;22.80;5.70;;;;;;;;;;5014058;28;20040;-49
2022/05/10 14:14:28;;;;;;;27.60;5.70;;;;;;;;;;4996532;28;20038;-48
2022/05/10 14:16:57;;;;;;;25.17;5.32;;;;;;;;;;5014073;28;20045;-51
2022/05/10 14:19:32;;;;;;;24.85;5.43;;;;;;;;;;5011957;28;20083;-51
2022/05/10 14:22:11;;;;;;;18.38;5.03;;;;;;;;;;5014334;28;20087;-51
2022/05/10 14:24:39;;;;;;;25.80;5.40;;;;;;;;;;5013662;28;20064;-52
2022/05/10 14:27:22;;;;;;;50.47;6.85;;;;;;;;;;5014101;28;20056;-48
2022/05/10 14:29:50;;;;;;;30.65;4.90;;;;;;;;;;5013064;28;20042;-48
2022/05/10 14:32:26;;;;;;;26.85;4.80;;;;;;;;;;5013909;28;20034;-51
2022/05/10 14:34:57;;;;;;;39.30;5.47;;;;;;;;;;5013546;28;20034;-52
2022/05/10 14:37:46;;;;;;;86.80;8.82;;;;;;;;;;5013552;28;20384;-46
2022/05/10 14:40:16;;;;;;;120.10;14.30;;;;;;;;;;5012930;28;20034;-55
2022/05/10 14:42:54;;;;;;;88.72;9.25;;;;;;;;;;5013476;28;20088;-53
2022/05/10 14:45:31;;;;;;;78.00;8.02;;;;;;;;;;5013483;28;20033;-51
2022/05/10 14:47:58;;;;;;;59.45;7.63;;;;;;;;;;4995757;28;20034;-47
2022/05/10 14:50:38;;;;;;;47.63;6.80;;;;;;;;;;4995324;28;20038;-46
2022/05/10 14:53:12;;;;;;;53.38;6.53;;;;;;;;;;5012950;28;20030;-52
2022/05/10 14:55:40;;;;;;;32.97;6.53;;;;;;;;;;5013151;28;20084;-49
2022/05/10 14:58:12;;;;;;;39.97;5.75;;;;;;;;;;4996019;28;20034;-47
2022/05/10 15:00:49;;;;;;;45.67;5.78;;;;;;;;;;5012945;28;20030;-48
2022/05/10 15:03:16;;;;;;;39.65;5.68;;;;;;;;;;5013325;28;20022;-46